createdAt,value
2019-03-29T00:03:30.711Z,23.3
2019-03-29T00:13:29.923Z,23.3
2019-03-29T00:23:29.132Z,23.3
2019-03-29T00:33:28.343Z,23.3
2019-03-29T00:43:27.551Z,23.3
2019-03-29T00:53:26.763Z,23.2
2019-03-29T01:03:25.971Z,23.1
2019-03-29T01:13:25.200Z,23.1
2019-03-29T01:23:24.407Z,23.3
2019-03-29T01:33:24.289Z,23.2
2019-03-29T01:43:22.810Z,23.3
2019-03-29T01:53:22.021Z,23.2
2019-03-29T02:03:21.229Z,23.1
2019-03-29T02:13:20.438Z,23.1
2019-03-29T02:23:19.650Z,23
2019-03-29T02:33:20.460Z,23.2
2019-03-29T02:43:18.067Z,23.2
2019-03-29T02:53:17.300Z,23.1
2019-03-29T03:03:16.510Z,23.1
2019-03-29T03:13:49.778Z,23
2019-03-29T03:23:48.987Z,23
2019-03-29T03:33:48.200Z,23.1
2019-03-29T03:43:47.433Z,23.1
2019-03-29T03:53:46.616Z,23.1
2019-03-29T04:03:45.825Z,23.2
2019-03-29T04:12:58.146Z,23.1
2019-03-29T04:22:57.365Z,23
2019-03-29T04:32:56.566Z,22.9
2019-03-29T04:42:55.774Z,22.8
2019-03-29T04:52:54.984Z,22.8
2019-03-29T05:02:54.194Z,22.8
2019-03-29T05:12:53.454Z,22.7
2019-03-29T05:22:52.742Z,22.9
2019-03-29T05:32:52.028Z,22.9
2019-03-29T05:42:51.322Z,23
2019-03-29T05:52:50.613Z,23.1
2019-03-29T06:02:49.902Z,23.3
2019-03-29T06:12:49.111Z,23.4
2019-03-29T06:22:48.324Z,23.5
2019-03-29T06:32:47.529Z,23.6
2019-03-29T06:42:46.739Z,23.8
2019-03-29T06:52:45.949Z,23.9
2019-03-29T07:02:45.157Z,24
2019-03-29T07:12:44.366Z,24.1
2019-03-29T07:22:43.578Z,24.2
2019-03-29T07:32:42.787Z,24.3
2019-03-29T07:42:41.996Z,24.4
2019-03-29T07:52:41.201Z,24.5
2019-03-29T08:02:40.413Z,24.6
2019-03-29T08:12:40.602Z,24.8
2019-03-29T08:22:38.827Z,24.9
2019-03-29T08:32:38.037Z,24.9
2019-03-29T08:42:37.245Z,24.9
2019-03-29T08:52:36.452Z,24.9
2019-03-29T09:02:35.662Z,24.9
2019-03-29T09:12:34.872Z,25
2019-03-29T09:22:34.077Z,25
2019-03-29T09:32:33.289Z,25
2019-03-29T09:42:32.496Z,24.9
2019-03-29T09:52:31.705Z,25
2019-03-29T10:02:30.911Z,25
2019-03-29T10:12:42.551Z,25
2019-03-29T10:22:29.327Z,24.9
2019-03-29T10:32:28.536Z,24.9
2019-03-29T10:42:27.745Z,24.9
2019-03-29T10:52:26.952Z,24.8
2019-03-29T11:02:26.167Z,24.8
2019-03-29T11:12:25.375Z,24.8
2019-03-29T11:22:24.585Z,24.8
2019-03-29T11:32:23.798Z,24.6
2019-03-29T11:42:23.010Z,24.6
2019-03-29T11:52:22.216Z,24.6
2019-03-29T12:02:30.880Z,24.6
2019-03-29T12:12:20.655Z,24.6
2019-03-29T12:22:19.898Z,24.5
2019-03-29T12:32:19.059Z,24.4
2019-03-29T12:42:18.266Z,24.4
2019-03-29T12:52:17.473Z,24.3
2019-03-29T13:02:16.685Z,24.3
2019-03-29T13:12:16.462Z,24.2
2019-03-29T13:22:15.671Z,24.1
2019-03-29T13:32:14.887Z,24
2019-03-29T13:42:14.091Z,23.9
2019-03-29T13:52:13.297Z,23.8
2019-03-29T14:02:12.504Z,23.8
2019-03-29T14:12:11.713Z,23.7
2019-03-29T14:22:10.923Z,23.7
2019-03-29T14:32:10.135Z,23.6
2019-03-29T14:42:12.387Z,23.6
2019-03-29T14:52:08.544Z,23.5
2019-03-29T15:02:07.752Z,23.4
2019-03-29T15:12:07.327Z,23.4
2019-03-29T15:22:06.166Z,23.4
2019-03-29T15:32:05.374Z,23.4
2019-03-29T15:42:04.580Z,23.4
2019-03-29T15:52:03.788Z,23.4
2019-03-29T16:02:02.996Z,23.4
2019-03-29T16:12:02.204Z,23.3
2019-03-29T16:22:01.413Z,23.3
2019-03-29T16:36:55.213Z,23.3
2019-03-29T16:46:54.424Z,23.3
2019-03-29T16:56:53.637Z,23.2
2019-03-29T17:06:52.845Z,23.3
2019-03-29T17:16:52.999Z,23.3
2019-03-29T17:26:51.265Z,23.3
2019-03-29T17:36:50.567Z,23.3
2019-03-29T17:46:49.807Z,23.3
2019-03-29T17:56:49.096Z,23.2
2019-03-29T18:06:48.393Z,23.1
2019-03-29T18:16:47.684Z,23.1
2019-03-29T18:26:47.130Z,23.1
2019-03-29T18:36:46.180Z,23.1
2019-03-29T18:46:45.399Z,23.1
2019-03-29T18:56:44.615Z,23.1
2019-03-29T19:06:43.837Z,23.2
2019-03-29T19:16:43.077Z,23.2
2019-03-29T19:26:42.272Z,23.3
2019-03-29T19:36:41.480Z,23.3
2019-03-29T19:46:40.692Z,23.3
2019-03-29T19:56:39.938Z,23.4
2019-03-29T20:03:42.372Z,23.4
2019-03-29T20:13:41.557Z,23.4
2019-03-29T20:23:40.781Z,23.4
2019-03-29T20:35:22.200Z,23.4
2019-03-29T20:45:21.411Z,23.4
2019-03-29T20:55:20.626Z,23.4
2019-03-29T21:05:19.831Z,23.4
2019-03-29T21:15:19.043Z,23.4
2019-03-29T21:25:18.255Z,23.4
2019-03-29T21:35:17.502Z,23.4
2019-03-29T21:45:27.912Z,23.4
2019-03-29T21:55:16.088Z,23.4
2019-03-29T22:05:15.375Z,23.4
2019-03-29T22:15:14.665Z,23.4
2019-03-29T22:25:13.954Z,23.4
2019-03-29T22:35:13.163Z,23.4
2019-03-29T22:45:12.370Z,23.3
2019-03-29T22:55:11.585Z,23.3
2019-03-29T23:05:10.792Z,23.3
2019-03-29T23:15:10.006Z,23.3
2019-03-29T23:25:09.208Z,23.3
2019-03-29T23:35:08.417Z,23.3
2019-03-29T23:45:07.627Z,23.3
2019-03-29T23:55:06.836Z,23.3
